Aérodrome :
LOGIN :

S'inscrire | Disclaimer

   EN    FR    IT 

 










Légende :    VFR   VFR Marginal   IFR   IFR Intensif   IFR Très Intensif
Visi : 
Plafond : 
>= 8 km
>= 3000ft
5 à 8 km
1000 à 3000 ft
1500m à 5 km
500 à 1000 ft
800 à 1500m
200 à 500 ft
< 800m
< 200 ft
Symboles :   Orages  Brouillard  Fortes neiges  Fortes précipitations  Vent > 20 kt
SIGMETs :   Divers  Orages  Givrage  Turbulence  Onde Orograph.  Cendres Volcan.







- Altitude de l'aérodrome : 124 ft
- Code IATA : AVN
- Voir les cartes d'approche


LFMV - Avignon Caumont

DERNIER METAR :
  • 151530Z AUTO 12009KT 090V160 CAVOK 21/11 Q1010 TEMPO RA BECMG 12020G30KT

METARs EXPIRÉS :
  • 151500Z AUTO 11014KT 080V140 9999 FEW031 BKN092 BKN110 21/12 Q1010 TEMPO RA BECMG 12020G30KT
  • 151430Z AUTO 11016G30KT 080V140 9999 FEW036/// SCT080/// OVC100/// ///TCU 22/10 Q1010 TEMPO RA BKN040
  • 151400Z AUTO 12019G31KT 080V150 CAVOK 23/10 Q1010 TEMPO RA
  • 151330Z AUTO 12014KT 080V150 CAVOK 23/10 Q1010 TEMPO 13023G35KT RA
  • 151300Z AUTO 11017G27KT CAVOK 23/10 Q1010 TEMPO RA

TAF TAF LFMV
Valide du 15 à 15h jusqu'au 16 à 15h UTC


151400Z 1515/1615 12020G30KT CAVOK
TEMPO 1515/1608 RA BKN040
BECMG 1520/1522 14010KT
BECMG 1600/1603 36010KT
ATIS : +33 4 90 84 32 84
Pas de NOTAMs connus pour ce terrain.
1 SIGMET publié pour la FIR Marseille (LFMM) :
 
Turbulence forte
LFMM SIGMET 13 VALID 151400/151800 LFPW
LFMM MARSEILLE FIR/UIR SEV TURB FCST WI N4400 E00245 - N4600 E00300 - N4600 E00315 - N4345 E00415 - N4345 E00700 - N4245 E00700 - N4330 E00300 - N4400 E00245 SFC/FL070 STNR NC=



MET'MAP, la Météo Aéronautique d'un coup d'oeil ! - Copyright ORBIFLY Décembre 2007 - Disclaimer

ORBIFLY MET'MAP TEAM :

Programmation & Développement : Alexandra Zaïnal
Conception & Développement : Baudouin d'Aumeries
Co-Programmation & Développement : Marc-Olivier Méhu
Soutien technique & logistique : Manuel Goepfert

Contact : metmap@orbifly.com




SOURCES & CREDITS :

   NOAA